Time;durP1;ratioP1;P1;durP2;ratioP2;P2;SDS_P1;SDS_P2;PMS_P1;PMS_P2;Temp;Humidity;BMP_temperature;BMP_pressure;BME280_temperature;BME280_humidity;BME280_pressure;Samples;Min_cycle;Max_cycle;Signal;HPM_P1;HPM_P2
2022/05/10 00:00:35;;;;;;;;;;;;;;;18.49;53.63;100402.44;4429262;32;19992;-71
2022/05/10 00:03:04;;;;;;;;;;;;;;;18.11;54.70;100402.72;4433804;32;19969;-71
2022/05/10 00:05:32;;;;;;;;;;;;;;;18.30;54.35;100398.31;4430978;32;19996;-71
2022/05/10 00:07:59;;;;;;;;;;;;;;;18.36;54.39;100416.25;4432872;32;20186;-71
2022/05/10 00:10:25;;;;;;;;;;;;;;;17.96;55.80;100402.00;4430089;32;20024;-71
2022/05/10 00:12:51;;;;;;;;;;;;;;;17.85;57.04;100384.75;4431856;32;19985;-71
2022/05/10 00:15:16;;;;;;;;;;;;;;;17.72;57.84;100382.28;4432746;32;20001;-70
2022/05/10 00:17:42;;;;;;;;;;;;;;;17.48;59.56;100375.97;4430974;32;20048;-70
2022/05/10 00:20:12;;;;;;;;;;;;;;;17.38;60.15;100391.56;4431079;32;20323;-70
2022/05/10 00:22:38;;;;;;;;;;;;;;;17.32;60.22;100372.84;4431910;32;20324;-70
2022/05/10 00:25:06;;;;;;;;;;;;;;;17.26;59.97;100372.75;4432256;32;19973;-70
2022/05/10 00:27:31;;;;;;;;;;;;;;;17.46;59.05;100383.44;4431233;32;20013;-70
2022/05/10 00:29:57;;;;;;;;;;;;;;;17.76;58.18;100382.06;4430459;32;19997;-70
2022/05/10 00:32:24;;;;;;;;;;;;;;;18.15;56.74;100377.66;4430690;32;20004;-70
2022/05/10 00:34:50;;;;;;;;;;;;;;;18.33;56.03;100371.66;4434213;32;19981;-70
2022/05/10 00:37:18;;;;;;;;;;;;;;;18.61;55.14;100369.13;4431048;32;19965;-70
2022/05/10 00:39:44;;;;;;;;;;;;;;;18.67;54.61;100372.81;4428933;32;19992;-70
2022/05/10 00:42:15;;;;;;;;;;;;;;;18.88;53.78;100374.31;4432415;32;20308;-70
2022/05/10 00:44:44;;;;;;;;;;;;;;;18.83;53.58;100381.53;4429812;32;19949;-70
2022/05/10 00:47:17;;;;;;;;;;;;;;;18.51;54.61;100371.38;4430190;32;19984;-70
2022/05/10 00:49:45;;;;;;;;;;;;;;;18.59;54.37;100372.47;4433605;32;20279;-70
2022/05/10 00:52:16;;;;;;;;;;;;;;;18.36;54.94;100393.44;4430939;32;19962;-70
2022/05/10 00:54:46;;;;;;;;;;;;;;;18.62;54.42;100374.31;4430068;32;20364;-70
2022/05/10 00:59:56;;;;;;;;;;;;;;;18.83;54.44;100372.19;3949121;32;15775404;-70
2022/05/10 01:02:30;;;;;;;;;;;;;;;18.83;54.44;100372.19;4431277;32;20040;-70
2022/05/10 01:04:58;;;;;;;;;;;;;;;18.61;54.47;100366.28;4432517;32;20357;-70
2022/05/10 01:07:29;;;;;;;;;;;;;;;18.69;54.06;100350.31;4432684;32;20463;-70
2022/05/10 01:09:58;;;;;;;;;;;;;;;18.68;54.09;100360.16;4434552;32;19996;-70
2022/05/10 01:12:43;;;;;;;;;;;;;;;18.29;55.30;100338.97;4431081;32;19968;-70
2022/05/10 01:15:12;;;;;;;;;;;;;;;18.24;55.62;100351.09;4432739;32;19992;-70
2022/05/10 01:17:38;;;;;;;;;;;;;;;18.45;54.91;100353.44;4432643;32;20038;-70
2022/05/10 01:20:04;;;;;;;;;;;;;;;18.55;54.49;100349.13;4432680;32;19965;-70
2022/05/10 01:22:47;;;;;;;;;;;;;;;18.61;54.04;100340.62;4431710;32;19972;-70
2022/05/10 01:25:17;;;;;;;;;;;;;;;18.67;53.86;100341.47;4430038;32;20056;-70
2022/05/10 01:27:47;;;;;;;;;;;;;;;18.62;53.93;100331.56;4432221;32;19985;-70
2022/05/10 01:30:15;;;;;;;;;;;;;;;18.52;54.03;100332.25;4431430;32;19961;-70
2022/05/10 01:35:19;;;;;;;;;;;;;;;18.79;53.64;100321.13;3951023;32;15726494;-70
2022/05/10 01:37:48;;;;;;;;;;;;;;;18.79;53.64;100321.13;4433429;32;20333;-70
2022/05/10 01:43:16;;;;;;;;;;;;;;;18.35;54.78;100306.41;3951369;32;15725257;-70
2022/05/10 01:45:52;;;;;;;;;;;;;;;18.35;54.78;100306.41;4427437;32;20449;-70
2022/05/10 01:48:19;;;;;;;;;;;;;;;17.94;55.45;100307.75;4430053;32;19957;-70
2022/05/10 01:50:49;;;;;;;;;;;;;;;17.88;55.81;100304.84;4430302;32;20186;-70
2022/05/10 01:55:52;;;;;;;;;;;;;;;18.27;55.40;100295.97;3951363;32;15722754;-71
2022/05/10 01:58:27;;;;;;;;;;;;;;;18.27;55.40;100295.97;4427022;32;19966;-70
2022/05/10 02:00:55;;;;;;;;;;;;;;;17.78;56.09;100299.81;4427938;32;19954;-70
2022/05/10 02:03:42;;;;;;;;;;;;;;;17.53;56.74;100289.94;4425842;32;20346;-70
2022/05/10 02:06:11;;;;;;;;;;;;;;;17.33;57.55;100289.06;4426500;32;19953;-70
2022/05/10 02:11:13;;;;;;;;;;;;;;;17.86;56.71;100296.03;3950219;32;15726470;-70
2022/05/10 02:13:50;;;;;;;;;;;;;;;17.86;56.71;100296.03;4429748;32;19972;-70
2022/05/10 02:16:36;;;;;;;;;;;;;;;17.54;56.99;100287.84;4428015;32;20655;-70
2022/05/10 02:19:07;;;;;;;;;;;;;;;17.62;56.86;100292.59;4428516;32;20079;-70
2022/05/10 02:21:38;;;;;;;;;;;;;;;17.50;57.25;100281.59;4429456;32;20012;-70
2022/05/10 02:24:12;;;;;;;;;;;;;;;17.50;57.16;100288.06;4426513;32;19949;-70
2022/05/10 02:26:42;;;;;;;;;;;;;;;17.54;57.11;100280.09;4426572;32;19993;-70
2022/05/10 02:29:13;;;;;;;;;;;;;;;17.77;56.99;100281.19;4427451;32;19965;-70
2022/05/10 02:34:46;;;;;;;;;;;;;;;17.54;57.39;100282.16;4426948;32;19992;-70
2022/05/10 02:37:12;;;;;;;;;;;;;;;17.76;56.58;100283.22;4426618;32;19997;-70
2022/05/10 02:39:39;;;;;;;;;;;;;;;17.71;56.96;100283.16;4429092;32;20021;-70
2022/05/10 02:42:06;;;;;;;;;;;;;;;17.55;57.45;100287.34;4423797;32;20037;-70
2022/05/10 02:44:31;;;;;;;;;;;;;;;17.55;57.55;100278.06;4428520;32;20032;-70
2022/05/10 02:46:57;;;;;;;;;;;;;;;17.56;57.72;100276.75;4428874;32;20599;-70
2022/05/10 02:49:23;;;;;;;;;;;;;;;17.46;57.65;100266.81;4425788;32;20440;-70
2022/05/10 02:51:49;;;;;;;;;;;;;;;17.53;57.84;100263.53;4423130;32;20045;-70
2022/05/10 02:54:14;;;;;;;;;;;;;;;17.50;57.76;100264.53;4430556;32;19994;-70
2022/05/10 02:56:41;;;;;;;;;;;;;;;18.19;56.22;100258.59;4426076;32;20068;-70
2022/05/10 02:59:12;;;;;;;;;;;;;;;18.22;55.86;100259.69;4430301;32;20341;-70
2022/05/10 03:04:16;;;;;;;;;;;;;;;17.65;57.80;100248.94;3958505;31;15720336;-70
2022/05/10 03:06:43;;;;;;;;;;;;;;;17.57;58.21;100250.66;4442639;32;19957;-70
2022/05/10 03:09:08;;;;;;;;;;;;;;;17.53;58.39;100241.56;4439330;32;19972;-70
2022/05/10 03:11:35;;;;;;;;;;;;;;;17.62;58.26;100232.09;4439873;32;19976;-70
2022/05/10 03:14:01;;;;;;;;;;;;;;;17.52;58.63;100236.38;4440182;32;20051;-70
2022/05/10 03:16:27;;;;;;;;;;;;;;;17.50;58.80;100236.06;4437983;32;19969;-70
2022/05/10 03:18:53;;;;;;;;;;;;;;;17.53;58.87;100227.34;4441453;32;20001;-71
2022/05/10 03:21:19;;;;;;;;;;;;;;;17.46;59.14;100219.22;4441403;32;19957;-71
2022/05/10 03:23:44;;;;;;;;;;;;;;;17.40;59.38;100218.31;4442087;32;20728;-70
2022/05/10 03:26:11;;;;;;;;;;;;;;;17.51;59.26;100220.56;4442861;32;20376;-70
2022/05/10 03:28:37;;;;;;;;;;;;;;;17.33;60.04;100221.59;4440024;32;19997;-70
2022/05/10 03:31:04;;;;;;;;;;;;;;;17.36;60.04;100217.78;4443433;32;20418;-70
2022/05/10 03:33:30;;;;;;;;;;;;;;;17.34;59.75;100216.72;4439981;32;20355;-70
2022/05/10 03:35:56;;;;;;;;;;;;;;;17.13;60.83;100217.97;4444346;32;20426;-70
2022/05/10 03:38:21;;;;;;;;;;;;;;;16.93;61.63;100215.88;4442281;32;19977;-70
2022/05/10 03:40:47;;;;;;;;;;;;;;;17.43;60.31;100208.06;4441397;32;19966;-70
2022/05/10 03:43:13;;;;;;;;;;;;;;;17.33;60.51;100210.22;4440517;32;20004;-70
2022/05/10 03:45:38;;;;;;;;;;;;;;;17.29;60.64;100218.19;4442859;32;20007;-70
2022/05/10 03:48:04;;;;;;;;;;;;;;;17.02;61.56;100200.75;4443403;32;20139;-70
2022/05/10 03:50:30;;;;;;;;;;;;;;;16.95;61.74;100199.13;4443046;32;20020;-70
2022/05/10 03:52:56;;;;;;;;;;;;;;;16.90;62.17;100196.19;4443510;32;19971;-70
2022/05/10 03:55:23;;;;;;;;;;;;;;;16.92;62.24;100197.28;4438685;32;20352;-70
2022/05/10 03:57:49;;;;;;;;;;;;;;;16.85;62.47;100188.38;4441430;32;19983;-70
2022/05/10 04:00:17;;;;;;;;;;;;;;;16.88;62.44;100198.75;4441327;32;19958;-70
2022/05/10 04:02:43;;;;;;;;;;;;;;;16.56;63.84;100194.13;4440499;32;20660;-70
2022/05/10 04:05:10;;;;;;;;;;;;;;;16.73;63.37;100195.16;4439151;32;19993;-70
2022/05/10 04:07:36;;;;;;;;;;;;;;;16.72;63.47;100208.59;4440942;32;19997;-70
2022/05/10 04:10:03;;;;;;;;;;;;;;;16.66;63.81;100202.03;4443261;32;19961;-70
2022/05/10 04:12:28;;;;;;;;;;;;;;;16.76;63.50;100214.88;4441929;32;20401;-70
2022/05/10 04:14:55;;;;;;;;;;;;;;;16.62;63.99;100203.50;4433733;32;20025;-70
2022/05/10 04:17:21;;;;;;;;;;;;;;;16.56;64.24;100196.94;4431724;32;19997;-70
2022/05/10 04:19:46;;;;;;;;;;;;;;;16.68;64.03;100207.22;4429899;32;20022;-70
2022/05/10 04:22:12;;;;;;;;;;;;;;;16.64;64.21;100213.13;4436652;32;20249;-70
2022/05/10 04:24:39;;;;;;;;;;;;;;;16.67;64.18;100200.78;4427435;32;19964;-70
2022/05/10 04:27:05;;;;;;;;;;;;;;;16.69;64.20;100205.97;4427608;32;19958;-70
2022/05/10 04:29:30;;;;;;;;;;;;;;;16.58;64.31;100209.41;4431016;32;19996;-70
2022/05/10 04:31:56;;;;;;;;;;;;;;;16.71;64.09;100204.19;4432811;32;19988;-70
2022/05/10 04:34:21;;;;;;;;;;;;;;;16.71;63.96;100184.28;4427516;32;19952;-70
2022/05/10 04:36:48;;;;;;;;;;;;;;;16.99;63.37;100179.00;4429527;32;19969;-70
2022/05/10 04:39:13;;;;;;;;;;;;;;;17.13;62.85;100183.84;4428071;32;20317;-70
2022/05/10 04:41:44;;;;;;;;;;;;;;;17.60;61.40;100181.38;4426755;32;19965;-70
2022/05/10 04:44:10;;;;;;;;;;;;;;;17.46;61.69;100187.16;4425884;32;20009;-70
2022/05/10 04:46:39;;;;;;;;;;;;;;;17.34;61.80;100193.94;4428361;32;19953;-70
2022/05/10 04:49:05;;;;;;;;;;;;;;;17.36;61.71;100199.91;4402839;32;19957;-70
2022/05/10 04:51:30;;;;;;;;;;;;;;;17.45;61.88;100206.28;4429241;32;20000;-70
2022/05/10 04:53:56;;;;;;;;;;;;;;;17.48;61.59;100199.59;4424587;32;19961;-70
2022/05/10 04:56:22;;;;;;;;;;;;;;;17.68;60.86;100193.09;4429840;32;20185;-70
2022/05/10 04:58:49;;;;;;;;;;;;;;;17.63;60.91;100203.13;4432020;32;19993;-70
2022/05/10 05:01:15;;;;;;;;;;;;;;;17.48;61.56;100191.06;4430440;32;19957;-70
2022/05/10 05:03:42;;;;;;;;;;;;;;;17.56;61.22;100192.19;4428033;32;19997;-70
2022/05/10 05:06:08;;;;;;;;;;;;;;;17.36;61.96;100197.84;4429184;32;19972;-70
2022/05/10 05:08:33;;;;;;;;;;;;;;;17.51;60.34;100209.97;4427933;32;19980;-70
2022/05/10 05:10:59;;;;;;;;;;;;;;;17.56;58.76;100195.03;4425257;32;19996;-70
2022/05/10 05:13:25;;;;;;;;;;;;;;;17.44;59.10;100190.50;4428033;32;19957;-70
2022/05/10 05:15:51;;;;;;;;;;;;;;;17.29;56.55;100192.59;4434081;32;20008;-70
2022/05/10 05:18:17;;;;;;;;;;;;;;;17.53;56.31;100201.72;4430472;32;19945;-70
2022/05/10 05:20:43;;;;;;;;;;;;;;;17.53;54.95;100210.25;4428350;32;20037;-70
2022/05/10 05:23:10;;;;;;;;;;;;;;;17.55;53.46;100204.84;4429452;32;19953;-70
2022/05/10 05:25:36;;;;;;;;;;;;;;;17.50;52.27;100211.25;4428649;32;20308;-70
2022/05/10 05:28:02;;;;;;;;;;;;;;;17.52;51.64;100230.69;4426283;32;20400;-70
2022/05/10 05:30:28;;;;;;;;;;;;;;;17.35;51.59;100226.78;4429332;32;20000;-70
2022/05/10 05:32:53;;;;;;;;;;;;;;;17.28;51.42;100213.78;4428603;32;19957;-70
2022/05/10 05:35:19;;;;;;;;;;;;;;;17.34;51.56;100225.25;4429523;32;20015;-70
2022/05/10 05:37:45;;;;;;;;;;;;;;;17.08;52.39;100213.78;4426100;32;19969;-70
2022/05/10 05:40:12;;;;;;;;;;;;;;;17.00;52.59;100217.53;4427937;32;19965;-70
2022/05/10 05:42:38;;;;;;;;;;;;;;;16.77;53.37;100201.41;4425135;32;20587;-70
2022/05/10 05:45:05;;;;;;;;;;;;;;;17.33;52.45;100209.44;4430753;32;19991;-70
2022/05/10 05:47:30;;;;;;;;;;;;;;;17.24;52.28;100204.69;4432246;32;20020;-70
2022/05/10 05:49:56;;;;;;;;;;;;;;;17.42;51.82;100224.31;4428723;32;19961;-70
2022/05/10 05:52:22;;;;;;;;;;;;;;;17.27;51.61;100234.97;4433475;32;19997;-70
2022/05/10 05:54:48;;;;;;;;;;;;;;;17.23;51.72;100234.41;4426619;32;19973;-70
2022/05/10 05:57:13;;;;;;;;;;;;;;;17.41;50.95;100230.50;4432339;32;19969;-70
2022/05/10 05:59:39;;;;;;;;;;;;;;;17.61;50.71;100234.16;4428386;32;20008;-70
2022/05/10 06:02:14;;;;;;;;;;;;;;;17.78;50.10;100240.03;4426308;32;21014;-70
2022/05/10 06:04:40;;;;;;;;;;;;;;;17.61;49.99;100234.16;4431826;32;20040;-70
2022/05/10 06:07:06;;;;;;;;;;;;;;;17.56;50.26;100246.25;4426933;32;20410;-70
2022/05/10 06:09:32;;;;;;;;;;;;;;;17.55;50.37;100241.06;4427728;32;20435;-70
2022/05/10 06:11:57;;;;;;;;;;;;;;;17.37;50.02;100244.91;4426052;32;19953;-70
2022/05/10 06:14:23;;;;;;;;;;;;;;;17.40;49.92;100255.31;4428113;32;19957;-70
2022/05/10 06:16:48;;;;;;;;;;;;;;;17.40;50.08;100257.37;4430723;32;19969;-70
2022/05/10 06:19:14;;;;;;;;;;;;;;;17.31;50.18;100263.97;4428732;32;19986;-70
2022/05/10 06:21:41;;;;;;;;;;;;;;;17.21;50.12;100253.25;4429959;32;19994;-70
2022/05/10 06:24:07;;;;;;;;;;;;;;;17.11;50.50;100238.38;4426261;32;19993;-71
2022/05/10 06:26:32;;;;;;;;;;;;;;;17.01;50.57;100234.09;4429752;32;20003;-70
2022/05/10 06:28:58;;;;;;;;;;;;;;;17.12;50.38;100239.16;4424679;32;20061;-70
2022/05/10 06:31:23;;;;;;;;;;;;;;;17.12;49.93;100250.53;4427780;32;20337;-70
2022/05/10 06:33:48;;;;;;;;;;;;;;;17.09;50.04;100257.97;4421879;32;20291;-70
2022/05/10 06:36:14;;;;;;;;;;;;;;;16.93;49.98;100257.72;4410132;32;20391;-70
2022/05/10 06:38:40;;;;;;;;;;;;;;;16.87;50.03;100265.38;4415471;32;19962;-70
2022/05/10 06:41:06;;;;;;;;;;;;;;;16.79;49.85;100275.59;4418357;32;19949;-70
2022/05/10 06:43:36;;;;;;;;;;;;;;;16.76;49.89;100256.69;4414458;32;19953;-70
2022/05/10 06:46:20;;;;;;;;;;;;;;;16.43;50.71;100245.56;4422980;32;20366;-70
2022/05/10 06:48:46;;;;;;;;;;;;;;;16.47;50.77;100263.19;4422701;32;20030;-70
2022/05/10 06:51:13;;;;;;;;;;;;;;;16.30;51.15;100261.31;4423864;32;20441;-70
2022/05/10 06:53:39;;;;;;;;;;;;;;;16.43;51.01;100261.78;4421446;32;20005;-70
2022/05/10 06:56:05;;;;;;;;;;;;;;;16.58;50.70;100262.59;4419257;32;20548;-70
2022/05/10 06:58:31;;;;;;;;;;;;;;;16.56;50.80;100263.09;4423267;32;20012;-70
2022/05/10 07:00:56;;;;;;;;;;;;;;;16.77;50.48;100278.13;4414936;32;19953;-70
2022/05/10 07:03:23;;;;;;;;;;;;;;;16.87;50.00;100266.16;4421987;32;20009;-70
2022/05/10 07:05:49;;;;;;;;;;;;;;;17.05;49.59;100271.63;4416844;32;20080;-69
2022/05/10 07:08:14;;;;;;;;;;;;;;;16.85;49.89;100276.47;4418276;32;19999;-70
2022/05/10 07:10:41;;;;;;;;;;;;;;;16.85;50.06;100276.47;4417362;32;20005;-70
2022/05/10 07:13:07;;;;;;;;;;;;;;;16.70;50.79;100265.13;4412731;32;19961;-69
2022/05/10 07:15:32;;;;;;;;;;;;;;;16.81;50.40;100268.13;4412401;32;19973;-70
2022/05/10 07:17:58;;;;;;;;;;;;;;;16.94;50.24;100267.84;4418914;32;20001;-70
2022/05/10 07:20:23;;;;;;;;;;;;;;;17.12;50.02;100271.19;4417036;32;20398;-70
2022/05/10 07:22:49;;;;;;;;;;;;;;;17.22;49.33;100249.91;4415145;32;20363;-70
2022/05/10 07:25:16;;;;;;;;;;;;;;;17.25;49.15;100260.25;4415123;32;19957;-70
2022/05/10 07:27:42;;;;;;;;;;;;;;;17.14;49.12;100253.66;4415001;32;19981;-70
2022/05/10 07:30:08;;;;;;;;;;;;;;;17.20;49.42;100249.63;4413112;32;20535;-70
2022/05/10 07:32:35;;;;;;;;;;;;;;;17.40;48.86;100252.47;4413099;32;20021;-70
2022/05/10 07:35:03;;;;;;;;;;;;;;;17.35;48.80;100258.09;4412052;32;21419;-70
2022/05/10 07:37:30;;;;;;;;;;;;;;;17.28;48.76;100262.12;4415341;32;19997;-70
2022/05/10 07:39:56;;;;;;;;;;;;;;;17.49;48.85;100269.41;4417690;32;20013;-70
2022/05/10 07:42:22;;;;;;;;;;;;;;;17.41;48.41;100262.56;4416683;32;19966;-69
2022/05/10 07:44:51;;;;;;;;;;;;;;;17.41;48.33;100258.94;4422841;32;19949;-68
2022/05/10 07:47:17;;;;;;;;;;;;;;;17.47;48.43;100269.16;4417189;32;19964;-70
2022/05/10 07:49:42;;;;;;;;;;;;;;;17.53;48.39;100275.69;4417147;32;21135;-70
2022/05/10 07:52:08;;;;;;;;;;;;;;;17.48;47.43;100255.69;4416874;32;19957;-70
2022/05/10 07:54:35;;;;;;;;;;;;;;;17.44;47.94;100257.97;4412651;32;20019;-69
2022/05/10 07:57:00;;;;;;;;;;;;;;;17.58;47.41;100269.28;4418113;32;20000;-70
2022/05/10 07:59:28;;;;;;;;;;;;;;;17.54;47.07;100265.09;4418677;32;20015;-71
2022/05/10 08:01:53;;;;;;;;;;;;;;;17.62;46.73;100269.09;4418794;32;19953;-69
2022/05/10 08:04:19;;;;;;;;;;;;;;;17.68;46.72;100250.00;4417651;32;20037;-70
2022/05/10 08:06:46;;;;;;;;;;;;;;;17.86;46.21;100255.41;4418512;32;19997;-70
2022/05/10 08:09:12;;;;;;;;;;;;;;;17.94;46.56;100267.91;4419392;32;19953;-68
2022/05/10 08:11:39;;;;;;;;;;;;;;;18.28;46.03;100266.22;4421885;32;19993;-69
2022/05/10 08:14:04;;;;;;;;;;;;;;;18.13;45.63;100262.69;4417892;32;20354;-69
2022/05/10 08:16:31;;;;;;;;;;;;;;;18.06;45.55;100263.09;4422314;32;20004;-70
2022/05/10 08:18:56;;;;;;;;;;;;;;;18.17;45.49;100271.78;4417202;32;19993;-71
2022/05/10 08:21:22;;;;;;;;;;;;;;;17.89;46.30;100274.34;4420047;32;19997;-70
2022/05/10 08:23:52;;;;;;;;;;;;;;;18.05;45.70;100264.41;4412702;32;20056;-70
2022/05/10 08:26:17;;;;;;;;;;;;;;;18.10;45.34;100286.47;4417303;32;20009;-70
2022/05/10 08:28:43;;;;;;;;;;;;;;;18.46;44.72;100277.28;4418247;32;20033;-70
2022/05/10 08:31:10;;;;;;;;;;;;;;;18.50;44.17;100287.16;4416242;32;20643;-70
2022/05/10 08:33:37;;;;;;;;;;;;;;;18.52;44.28;100289.50;4415623;32;20470;-70
2022/05/10 08:36:03;;;;;;;;;;;;;;;18.53;44.46;100285.38;4414091;32;20052;-71
2022/05/10 08:38:30;;;;;;;;;;;;;;;18.58;44.42;100267.53;4418364;32;19984;-71
2022/05/10 08:41:00;;;;;;;;;;;;;;;18.84;43.79;100277.59;4412202;32;20022;-70
2022/05/10 08:46:18;;;;;;;;;;;;;;;19.90;41.61;100288.37;3940907;32;15728592;-70
2022/05/10 08:48:46;;;;;;;;;;;;;;;20.42;40.23;100289.59;4415203;32;20077;-71
2022/05/10 08:51:12;;;;;;;;;;;;;;;21.02;38.90;100308.88;4414727;32;20589;-71
2022/05/10 08:53:38;;;;;;;;;;;;;;;20.94;39.36;100299.28;4415374;32;20096;-71
2022/05/10 08:56:14;;;;;;;;;;;;;;;21.18;38.73;100301.59;4416537;32;19997;-71
2022/05/10 08:58:59;;;;;;;;;;;;;;;21.10;39.19;100301.34;4418172;32;20302;-71
2022/05/10 09:01:28;;;;;;;;;;;;;;;21.29;38.63;100305.19;4416489;32;19986;-69
2022/05/10 09:06:38;;;;;;;;;;;;;;;21.64;38.81;100313.19;3943386;32;15724022;-70
2022/05/10 09:11:52;;;;;;;;;;;;;;;20.99;40.33;100317.72;3930034;32;15909069;-71
2022/05/10 09:14:22;;;;;;;;;;;;;;;20.99;40.33;100317.72;4403553;32;20493;-71
2022/05/10 09:16:49;;;;;;;;;;;;;;;20.16;41.79;100309.03;4406392;32;20001;-72
2022/05/10 09:19:16;;;;;;;;;;;;;;;20.40;41.25;100306.47;4405581;32;20351;-71
2022/05/10 09:21:48;;;;;;;;;;;;;;;20.13;41.75;100309.25;4408172;32;20005;-71
2022/05/10 09:24:28;;;;;;;;;;;;;;;20.20;41.64;100303.03;4407419;32;20286;-70
2022/05/10 09:26:57;;;;;;;;;;;;;;;20.24;41.08;100303.56;4406793;32;20106;-71
2022/05/10 09:29:39;;;;;;;;;;;;;;;20.20;41.04;100314.47;4411018;32;20008;-70
2022/05/10 09:35:18;;;;;;;;;;;;;;;20.57;40.55;100300.78;4409490;32;19988;-69
2022/05/10 09:37:55;;;;;;;;;;;;;;;20.72;40.21;100309.88;4404096;32;20850;-69
2022/05/10 09:40:32;;;;;;;;;;;;;;;20.60;39.00;100317.69;4409781;32;19981;-70
2022/05/10 09:43:18;;;;;;;;;;;;;;;20.65;38.80;100302.59;4410683;32;20377;-69
2022/05/10 09:45:44;;;;;;;;;;;;;;;20.52;38.91;100295.84;4405945;32;20351;-69
2022/05/10 09:50:47;;;;;;;;;;;;;;;21.01;38.34;100302.94;3950319;32;15731599;-70
2022/05/10 09:53:18;;;;;;;;;;;;;;;21.02;38.34;100306.00;4437884;32;20428;-70
2022/05/10 09:55:53;;;;;;;;;;;;;;;20.42;39.76;100288.78;4434187;32;19985;-70
2022/05/10 09:58:20;;;;;;;;;;;;;;;20.90;39.01;100283.63;4436615;32;20047;-70
2022/05/10 10:00:52;;;;;;;;;;;;;;;21.53;38.05;100276.78;4434116;32;20000;-70
2022/05/10 10:08:49;;;;;;;;;;;;;;;22.64;36.25;100279.12;3941842;32;15723509;-70
2022/05/10 10:14:06;;;;;;;;;;;;;;;22.97;35.06;100268.13;3945450;32;15723225;-70
2022/05/10 10:19:11;;;;;;;;;;;;;;;22.76;34.77;100280.56;3949480;32;15727261;-70
2022/05/10 10:21:42;;;;;;;;;;;;;;;22.76;34.77;100280.56;4428029;32;19954;-72
2022/05/10 10:24:07;;;;;;;;;;;;;;;22.03;36.16;100275.81;4426737;32;19980;-71
2022/05/10 10:26:37;;;;;;;;;;;;;;;21.82;36.43;100283.22;4426289;32;20057;-70
2022/05/10 10:29:09;;;;;;;;;;;;;;;21.41;36.87;100285.91;4425471;32;20015;-70
2022/05/10 10:31:40;;;;;;;;;;;;;;;21.82;36.64;100280.34;4421038;32;20353;-69
2022/05/10 10:34:12;;;;;;;;;;;;;;;21.88;36.88;100296.22;4418996;32;19989;-71
2022/05/10 10:36:44;;;;;;;;;;;;;;;21.68;37.79;100296.50;4414789;32;20034;-71
2022/05/10 10:39:29;;;;;;;;;;;;;;;21.31;38.67;100284.66;4419402;32;19968;-71
2022/05/10 10:42:14;;;;;;;;;;;;;;;22.26;37.33;100300.19;4417465;32;19993;-70
2022/05/10 10:44:44;;;;;;;;;;;;;;;23.70;35.04;100300.56;4421451;32;19969;-70
2022/05/10 10:47:29;;;;;;;;;;;;;;;24.51;33.63;100282.75;4417951;32;20001;-70
2022/05/10 10:52:34;;;;;;;;;;;;;;;24.73;33.44;100284.53;3943477;32;15724480;-70
2022/05/10 10:55:00;;;;;;;;;;;;;;;25.04;32.97;100296.03;4414954;32;20037;-70
2022/05/10 10:57:45;;;;;;;;;;;;;;;24.57;33.61;100283.44;4422076;32;20000;-70
2022/05/10 11:00:13;;;;;;;;;;;;;;;25.57;32.48;100284.63;4418427;32;19953;-70
2022/05/10 11:02:59;;;;;;;;;;;;;;;26.08;31.12;100288.84;4414658;32;19989;-69
2022/05/10 11:05:45;;;;;;;;;;;;;;;26.39;30.20;100311.75;4415279;32;19969;-69
2022/05/10 11:08:17;;;;;;;;;;;;;;;24.30;33.27;100286.75;4415716;32;19949;-69
2022/05/10 11:10:47;;;;;;;;;;;;;;;23.49;36.71;100305.22;4416564;32;20013;-69
2022/05/10 11:13:32;;;;;;;;;;;;;;;22.72;37.44;100306.69;4418677;32;19962;-69
2022/05/10 11:16:06;;;;;;;;;;;;;;;22.40;37.98;100304.81;4418928;32;19998;-69
2022/05/10 11:18:40;;;;;;;;;;;;;;;22.80;37.65;100301.16;4415050;32;20009;-69
2022/05/10 11:34:33;;;;;;;;;;;;;;;25.36;32.62;100281.59;3956077;32;15721424;-70
2022/05/10 11:37:00;;;;;;;;;;;;;;;25.36;32.62;100281.59;4427273;32;20378;-70
2022/05/10 11:39:46;;;;;;;;;;;;;;;23.97;33.27;100290.84;4431751;32;20006;-70
2022/05/10 11:42:33;;;;;;;;;;;;;;;23.56;33.14;100275.88;4425943;32;20366;-70
2022/05/10 11:47:49;;;;;;;;;;;;;;;23.61;33.84;100275.06;3947507;32;15774497;-70
2022/05/10 11:50:34;;;;;;;;;;;;;;;23.61;33.84;100275.06;4436322;32;21566;-70
2022/05/10 11:53:20;;;;;;;;;;;;;;;22.77;34.91;100270.66;4430984;32;20508;-70
2022/05/10 11:56:02;;;;;;;;;;;;;;;22.52;35.01;100269.03;4425698;32;20002;-69
2022/05/10 11:58:29;;;;;;;;;;;;;;;21.93;37.72;100266.00;4436556;32;19992;-70
2022/05/10 12:00:56;;;;;;;;;;;;;;;22.59;37.30;100263.50;4437467;32;20510;-70
2022/05/10 12:09:04;;;;;;;;;;;;;;;24.97;30.69;100275.75;3948110;32;15722556;-70
2022/05/10 12:22:05;;;;;;;;;;;;;;;25.34;30.43;100252.56;3941081;32;15731180;-69
2022/05/10 12:24:32;;;;;;;;;;;;;;;25.34;30.43;100252.56;4409333;32;20051;-69
2022/05/10 12:26:59;;;;;;;;;;;;;;;25.69;29.84;100255.03;4413509;32;20366;-71
2022/05/10 12:34:58;;;;;;;;;;;;;;;25.75;28.48;100258.56;3945697;32;15722371;-71
2022/05/10 12:40:31;;;;;;;;;;;;;;;25.30;29.38;100255.78;3898535;32;17791628;-92
2022/05/10 12:49:02;;;;;;;;;;;;;;;24.98;28.70;100254.28;3956431;31;15721039;-71
2022/05/10 12:54:22;;;;;;;;;;;;;;;24.66;29.19;100242.00;3946657;32;15723474;-72
2022/05/10 12:57:02;;;;;;;;;;;;;;;24.66;29.19;100242.00;4426835;32;19986;-71
2022/05/10 12:59:34;;;;;;;;;;;;;;;24.17;29.56;100240.66;4420699;32;20042;-71
2022/05/10 13:02:01;;;;;;;;;;;;;;;24.73;29.12;100232.75;4422531;32;19990;-71
2022/05/10 13:04:30;;;;;;;;;;;;;;;25.52;28.22;100245.94;4419920;32;19957;-72
2022/05/10 13:09:34;;;;;;;;;;;;;;;26.27;26.95;100295.22;3947582;32;15723415;-72
2022/05/10 13:12:19;;;;;;;;;;;;;;;26.27;26.95;100295.22;4424045;32;20486;-72
2022/05/10 13:14:46;;;;;;;;;;;;;;;25.57;27.81;100224.09;4424753;32;19990;-71
2022/05/10 13:17:19;;;;;;;;;;;;;;;25.84;27.65;100219.84;4423456;32;19991;-72
2022/05/10 13:19:45;;;;;;;;;;;;;;;26.18;26.95;100229.34;4423390;32;19993;-71
2022/05/10 13:22:14;;;;;;;;;;;;;;;25.24;28.39;100234.94;4425843;32;20627;-72
2022/05/10 13:24:44;;;;;;;;;;;;;;;24.33;29.72;100222.38;4418813;32;19949;-71
2022/05/10 13:27:32;;;;;;;;;;;;;;;23.73;30.83;100221.09;4423319;32;19957;-71
2022/05/10 13:32:42;;;;;;;;;;;;;;;23.75;31.25;100227.09;3951613;32;15726563;-71
2022/05/10 13:35:12;;;;;;;;;;;;;;;23.75;31.25;100227.09;4425749;32;19977;-71
2022/05/10 13:37:41;;;;;;;;;;;;;;;23.92;30.55;100222.69;4422763;32;20718;-71
2022/05/10 13:40:09;;;;;;;;;;;;;;;23.58;31.67;100252.38;4426480;32;19996;-71
2022/05/10 13:42:43;;;;;;;;;;;;;;;24.60;30.50;100218.25;4425782;32;20492;-71
2022/05/10 13:45:11;;;;;;;;;;;;;;;25.89;28.22;100219.72;4425723;32;20318;-71
2022/05/10 13:47:37;;;;;;;;;;;;;;;26.82;26.67;100222.53;4424052;32;20525;-71
2022/05/10 13:50:03;;;;;;;;;;;;;;;27.33;26.02;100219.87;4425034;32;20015;-71
2022/05/10 13:52:33;;;;;;;;;;;;;;;27.85;25.19;100222.28;4423189;32;19961;-71
2022/05/10 13:55:01;;;;;;;;;;;;;;;28.65;24.38;100227.44;4424684;32;20253;-73
2022/05/10 13:57:28;;;;;;;;;;;;;;;28.58;24.39;100210.03;4423744;32;20322;-72
2022/05/10 13:59:55;;;;;;;;;;;;;;;27.53;25.49;100229.84;4413305;32;20209;-72
2022/05/10 14:02:22;;;;;;;;;;;;;;;27.37;25.78;100214.53;4422483;32;20029;-70
2022/05/10 14:04:49;;;;;;;;;;;;;;;27.92;25.18;100210.00;4421139;32;20004;-70
2022/05/10 14:07:17;;;;;;;;;;;;;;;28.87;24.34;100225.91;4418420;32;20004;-71
2022/05/10 14:09:44;;;;;;;;;;;;;;;28.47;24.29;100250.94;4419134;32;19989;-71
2022/05/10 14:12:15;;;;;;;;;;;;;;;26.34;26.27;100217.41;4422754;32;20691;-70
2022/05/10 14:14:41;;;;;;;;;;;;;;;25.66;27.39;100221.56;4420796;32;20374;-70
2022/05/10 14:17:07;;;;;;;;;;;;;;;25.32;28.51;100223.56;4418672;32;20030;-70
2022/05/10 14:22:13;;;;;;;;;;;;;;;26.66;27.69;100226.63;3943902;32;15733539;-71
2022/05/10 14:24:39;;;;;;;;;;;;;;;26.66;27.69;100226.63;4429062;32;20385;-71